BCS932 GMTT-LEVD
Flight info
| Callsign | BCS932 |
|---|---|
| Flight time | N/A |
| Altitude | 34000 |
| Route | ADKIM DCT LINTO N10 HIJ M30 PARKA |
| Aircraft | E195/M-SDE3GILORVW/S |
Departure
| Time | 2026-04-23 11:16 |
|---|---|
| Airport | Tangier Ibn Battuta Airport (GMTT) |
Arrival
| Time | N/A |
|---|---|
| Airport | Valladolid Airport (LEVD) |
| Time | Latitude | Longitude | Altitude | Speed | Heading |
|---|---|---|---|---|---|
| 2026-04-23 10:42 | 35.72681 | -5.91606 | 60 ft | 0 kts | 114° |
| 2026-04-23 11:08 | 35.72685 | -5.91617 | 55 ft | 2 kts | 114° |
| 2026-04-23 11:09 | 35.72692 | -5.91636 | 59 ft | 2 kts | 114° |
| 2026-04-23 11:09 | 35.72698 | -5.91654 | 59 ft | 2 kts | 114° |
| 2026-04-23 11:09 | 35.72702 | -5.91674 | 59 ft | 2 kts | 34° |
| 2026-04-23 11:09 | 35.72695 | -5.91677 | 59 ft | 0 kts | 334° |
| 2026-04-23 11:11 | 35.72698 | -5.91679 | 59 ft | 1 kts | 334° |
| 2026-04-23 11:11 | 35.72712 | -5.91688 | 59 ft | 4 kts | 334° |
| 2026-04-23 11:11 | 35.72741 | -5.91705 | 58 ft | 6 kts | 334° |
| 2026-04-23 11:11 | 35.72775 | -5.91715 | 51 ft | 5 kts | 354° |
| 2026-04-23 11:12 | 35.72815 | -5.91720 | 52 ft | 7 kts | 355° |
| 2026-04-23 11:12 | 35.72866 | -5.91721 | 55 ft | 8 kts | 1° |
| 2026-04-23 11:12 | 35.72914 | -5.91700 | 58 ft | 7 kts | 37° |
| 2026-04-23 11:12 | 35.72934 | -5.91651 | 53 ft | 9 kts | 83° |
| 2026-04-23 11:13 | 35.72930 | -5.91531 | 52 ft | 21 kts | 94° |
| 2026-04-23 11:13 | 35.72912 | -5.91317 | 59 ft | 27 kts | 96° |
| 2026-04-23 11:13 | 35.72893 | -5.91088 | 66 ft | 27 kts | 95° |
| 2026-04-23 11:13 | 35.72875 | -5.90866 | 69 ft | 27 kts | 95° |
| 2026-04-23 11:14 | 35.72852 | -5.90636 | 69 ft | 27 kts | 96° |
| 2026-04-23 11:14 | 35.72830 | -5.90424 | 64 ft | 19 kts | 98° |
| 2026-04-23 11:14 | 35.72823 | -5.90281 | 75 ft | 17 kts | 79° |
| 2026-04-23 11:14 | 35.72892 | -5.90194 | 69 ft | 13 kts | 12° |
| 2026-04-23 11:15 | 35.72973 | -5.90243 | 69 ft | 14 kts | 304° |
| 2026-04-23 11:15 | 35.73003 | -5.90407 | 63 ft | 45 kts | 276° |
| 2026-04-23 11:15 | 35.73069 | -5.91133 | 66 ft | 124 kts | 277° |
| 2026-04-23 11:15 | 35.73201 | -5.92465 | 154 ft | 184 kts | 276° |
| 2026-04-23 11:16 | 35.73323 | -5.94101 | 923 ft | 209 kts | 276° |
| 2026-04-23 11:16 | 35.73476 | -5.96066 | 1682 ft | 231 kts | 276° |
| 2026-04-23 11:16 | 35.73621 | -5.97979 | 3099 ft | 232 kts | 275° |
| 2026-04-23 11:16 | 35.73741 | -5.99752 | 4171 ft | 187 kts | 277° |
| 2026-04-23 11:17 | 35.73852 | -6.01421 | 4162 ft | 219 kts | 277° |
| 2026-04-23 11:17 | 35.74027 | -6.03390 | 4139 ft | 262 kts | 284° |
| 2026-04-23 11:17 | 35.74898 | -6.05556 | 3444 ft | 282 kts | 314° |
| 2026-04-23 11:17 | 35.76489 | -6.06848 | 3278 ft | 266 kts | 346° |
| 2026-04-23 11:18 | 35.77092 | -6.06988 | 3589 ft | 255 kts | 359° |
| 2026-04-23 11:18 | 35.78192 | -6.06816 | 4603 ft | 225 kts | 24° |
| 2026-04-23 11:18 | 35.79291 | -6.05769 | 6064 ft | 180 kts | 61° |
| 2026-04-23 11:19 | 35.79940 | -6.04470 | 6759 ft | 190 kts | 58° |
| 2026-04-23 11:19 | 35.80558 | -6.03714 | 6748 ft | 218 kts | 34° |
| 2026-04-23 11:19 | 35.82072 | -6.02927 | 7264 ft | 233 kts | 29° |
| 2026-04-23 11:19 | 35.83234 | -6.01739 | 7593 ft | 243 kts | 61° |
| 2026-04-23 11:20 | 35.83725 | -5.99678 | 7995 ft | 256 kts | 94° |
| 2026-04-23 11:20 | 35.83631 | -5.97416 | 8395 ft | 276 kts | 86° |
| 2026-04-23 11:20 | 35.84260 | -5.95217 | 8746 ft | 288 kts | 58° |
| 2026-04-23 11:20 | 35.85764 | -5.93537 | 9076 ft | 300 kts | 30° |
| 2026-04-23 11:21 | 35.88542 | -5.92944 | 9501 ft | 310 kts | 352° |
| 2026-04-23 11:21 | 35.89964 | -5.93365 | 9724 ft | 312 kts | 344° |
| 2026-04-23 11:21 | 35.92053 | -5.94143 | 10033 ft | 314 kts | 343° |
| 2026-04-23 11:21 | 35.94222 | -5.94870 | 10359 ft | 333 kts | 346° |
| 2026-04-23 11:22 | 35.96546 | -5.95466 | 10691 ft | 344 kts | 349° |
| 2026-04-23 11:22 | 35.98812 | -5.95948 | 10972 ft | 345 kts | 350° |
| 2026-04-23 11:22 | 36.01291 | -5.96334 | 11269 ft | 347 kts | 356° |
| 2026-04-23 11:22 | 36.02072 | -5.96386 | 11361 ft | 347 kts | 356° |
| 2026-04-23 11:24 | 36.02884 | -5.96437 | 11456 ft | 348 kts | 356° |